sensor_id;sensor_type;location;lat;lon;timestamp;pressure;altitude;pressure_sealevel;temperature;humidity
48644;BME280;34928;37.302;-121.984;2022-07-10T00:01:47;101354.0;;;32.30;25.21
48644;BME280;34928;37.302;-121.984;2022-07-10T00:11:53;101345.0;;;32.30;25.20
48644;BME280;34928;37.302;-121.984;2022-07-10T00:21:57;101333.0;;;32.62;25.22
48644;BME280;34928;37.302;-121.984;2022-07-10T00:32:02;101322.0;;;32.48;25.28
48644;BME280;34928;37.302;-121.984;2022-07-10T00:42:08;101314.0;;;32.38;25.38
48644;BME280;34928;37.302;-121.984;2022-07-10T00:52:14;101317.0;;;32.46;25.42
48644;BME280;34928;37.302;-121.984;2022-07-10T01:02:17;101315.0;;;32.61;25.19
48644;BME280;34928;37.302;-121.984;2022-07-10T01:12:22;101315.0;;;32.67;25.24
48644;BME280;34928;37.302;-121.984;2022-07-10T01:22:27;101323.0;;;32.69;25.22
48644;BME280;34928;37.302;-121.984;2022-07-10T01:32:38;101323.0;;;32.78;25.12
48644;BME280;34928;37.302;-121.984;2022-07-10T01:42:42;101328.0;;;32.72;25.25
48644;BME280;34928;37.302;-121.984;2022-07-10T01:52:47;101325.0;;;32.88;25.09
48644;BME280;34928;37.302;-121.984;2022-07-10T02:02:52;101326.0;;;32.88;25.04
48644;BME280;34928;37.302;-121.984;2022-07-10T02:12:57;101332.0;;;32.83;25.06
48644;BME280;34928;37.302;-121.984;2022-07-10T02:23:02;101335.0;;;32.89;25.06
48644;BME280;34928;37.302;-121.984;2022-07-10T02:33:07;101335.0;;;32.82;25.12
48644;BME280;34928;37.302;-121.984;2022-07-10T02:43:12;101339.0;;;32.64;25.28
48644;BME280;34928;37.302;-121.984;2022-07-10T02:53:17;101340.0;;;32.65;25.28
48644;BME280;34928;37.302;-121.984;2022-07-10T03:03:22;101345.0;;;32.53;25.36
48644;BME280;34928;37.302;-121.984;2022-07-10T03:13:28;101349.0;;;32.60;25.31
48644;BME280;34928;37.302;-121.984;2022-07-10T03:23:32;101351.0;;;32.45;25.38
48644;BME280;34928;37.302;-121.984;2022-07-10T03:33:37;101348.0;;;32.62;25.25
48644;BME280;34928;37.302;-121.984;2022-07-10T03:43:42;101351.0;;;32.41;25.37
48644;BME280;34928;37.302;-121.984;2022-07-10T03:53:47;101357.0;;;32.38;25.39
48644;BME280;34928;37.302;-121.984;2022-07-10T04:03:53;101366.0;;;32.38;25.37
48644;BME280;34928;37.302;-121.984;2022-07-10T04:13:57;101375.0;;;32.21;25.50
48644;BME280;34928;37.302;-121.984;2022-07-10T04:24:02;101386.0;;;32.56;25.38
48644;BME280;34928;37.302;-121.984;2022-07-10T04:34:07;101393.0;;;32.22;25.43
48644;BME280;34928;37.302;-121.984;2022-07-10T04:44:12;101398.0;;;32.17;25.41
48644;BME280;34928;37.302;-121.984;2022-07-10T04:54:17;101401.0;;;32.17;25.37
48644;BME280;34928;37.302;-121.984;2022-07-10T05:04:22;101411.0;;;32.26;25.23
48644;BME280;34928;37.302;-121.984;2022-07-10T05:14:27;101418.0;;;32.42;25.19
48644;BME280;34928;37.302;-121.984;2022-07-10T05:24:32;101417.0;;;32.22;25.33
48644;BME280;34928;37.302;-121.984;2022-07-10T05:34:38;101413.0;;;31.99;25.28
48644;BME280;34928;37.302;-121.984;2022-07-10T05:44:42;101410.0;;;32.50;24.95
48644;BME280;34928;37.302;-121.984;2022-07-10T05:54:47;101416.0;;;32.26;25.10
48644;BME280;34928;37.302;-121.984;2022-07-10T06:04:52;101411.0;;;32.19;25.12
48644;BME280;34928;37.302;-121.984;2022-07-10T06:14:57;101399.0;;;32.18;25.10
48644;BME280;34928;37.302;-121.984;2022-07-10T06:25:05;101399.0;;;32.24;24.93
48644;BME280;34928;37.302;-121.984;2022-07-10T06:35:12;101401.0;;;32.31;24.85
48644;BME280;34928;37.302;-121.984;2022-07-10T06:45:17;101390.0;;;32.01;24.78
48644;BME280;34928;37.302;-121.984;2022-07-10T06:55:23;101389.0;;;32.26;24.73
48644;BME280;34928;37.302;-121.984;2022-07-10T07:05:27;101386.0;;;32.42;24.75
48644;BME280;34928;37.302;-121.984;2022-07-10T07:15:32;101381.0;;;32.20;24.72
48644;BME280;34928;37.302;-121.984;2022-07-10T07:25:37;101374.0;;;32.34;24.74
48644;BME280;34928;37.302;-121.984;2022-07-10T07:35:42;101364.0;;;32.27;24.76
48644;BME280;34928;37.302;-121.984;2022-07-10T07:45:47;101367.0;;;32.08;24.69
48644;BME280;34928;37.302;-121.984;2022-07-10T07:55:52;101360.0;;;32.01;24.68
48644;BME280;34928;37.302;-121.984;2022-07-10T08:05:57;101358.0;;;32.17;24.61
48644;BME280;34928;37.302;-121.984;2022-07-10T08:16:02;101358.0;;;32.17;24.62
48644;BME280;34928;37.302;-121.984;2022-07-10T08:26:07;101347.0;;;31.89;24.59
48644;BME280;34928;37.302;-121.984;2022-07-10T08:36:12;101332.0;;;32.05;24.59
48644;BME280;34928;37.302;-121.984;2022-07-10T08:46:18;101325.0;;;31.80;24.53
48644;BME280;34928;37.302;-121.984;2022-07-10T08:56:22;101315.0;;;31.96;24.58
48644;BME280;34928;37.302;-121.984;2022-07-10T09:06:28;101313.0;;;31.91;24.46
48644;BME280;34928;37.302;-121.984;2022-07-10T09:16:34;101314.0;;;31.71;24.52
48644;BME280;34928;37.302;-121.984;2022-07-10T09:26:38;101310.0;;;31.71;24.44
48644;BME280;34928;37.302;-121.984;2022-07-10T09:36:42;101314.0;;;31.56;24.49
48644;BME280;34928;37.302;-121.984;2022-07-10T09:46:47;101305.0;;;31.61;24.63
48644;BME280;34928;37.302;-121.984;2022-07-10T09:56:52;101304.0;;;31.38;24.51
48644;BME280;34928;37.302;-121.984;2022-07-10T10:06:58;101299.0;;;31.34;24.48
48644;BME280;34928;37.302;-121.984;2022-07-10T10:17:03;101297.0;;;31.25;24.48
48644;BME280;34928;37.302;-121.984;2022-07-10T10:27:07;101299.0;;;31.45;24.49
48644;BME280;34928;37.302;-121.984;2022-07-10T10:47:27;101290.0;;;31.27;24.54
48644;BME280;34928;37.302;-121.984;2022-07-10T10:57:47;101291.0;;;31.30;24.65
48644;BME280;34928;37.302;-121.984;2022-07-10T11:07:52;101285.0;;;31.02;24.65
48644;BME280;34928;37.302;-121.984;2022-07-10T11:17:57;101277.0;;;30.90;24.69
48644;BME280;34928;37.302;-121.984;2022-07-10T11:28:07;101270.0;;;31.00;24.76
48644;BME280;34928;37.302;-121.984;2022-07-10T11:38:12;101274.0;;;31.01;24.70
48644;BME280;34928;37.302;-121.984;2022-07-10T11:48:18;101266.0;;;30.76;24.67
48644;BME280;34928;37.302;-121.984;2022-07-10T11:58:22;101266.0;;;30.96;24.62
48644;BME280;34928;37.302;-121.984;2022-07-10T12:08:27;101268.0;;;30.90;24.64
48644;BME280;34928;37.302;-121.984;2022-07-10T12:18:32;101276.0;;;30.58;24.67
48644;BME280;34928;37.302;-121.984;2022-07-10T12:38:57;101276.0;;;30.52;24.81
48644;BME280;34928;37.302;-121.984;2022-07-10T12:49:04;101271.0;;;30.51;24.76
48644;BME280;34928;37.302;-121.984;2022-07-10T12:59:13;101271.0;;;30.33;24.88
48644;BME280;34928;37.302;-121.984;2022-07-10T13:09:22;101276.0;;;30.27;24.88
48644;BME280;34928;37.302;-121.984;2022-07-10T13:19:27;101267.0;;;30.24;24.88
48644;BME280;34928;37.302;-121.984;2022-07-10T13:29:33;101272.0;;;30.48;24.85
48644;BME280;34928;37.302;-121.984;2022-07-10T13:39:37;101267.0;;;30.07;24.95
48644;BME280;34928;37.302;-121.984;2022-07-10T13:46:27;101274.0;;;30.09;24.90
48644;BME280;34928;37.302;-121.984;2022-07-10T13:56:32;101271.0;;;30.05;24.92
48644;BME280;34928;37.302;-121.984;2022-07-10T14:06:37;101270.0;;;30.00;24.93
48644;BME280;34928;37.302;-121.984;2022-07-10T14:16:42;101277.0;;;29.99;24.92
48644;BME280;34928;37.302;-121.984;2022-07-10T14:26:47;101275.0;;;29.90;25.02
48644;BME280;34928;37.302;-121.984;2022-07-10T14:36:52;101273.0;;;30.02;24.90
48644;BME280;34928;37.302;-121.984;2022-07-10T14:46:57;101273.0;;;29.95;24.90
48644;BME280;34928;37.302;-121.984;2022-07-10T14:57:02;101283.0;;;29.96;24.83
48644;BME280;34928;37.302;-121.984;2022-07-10T15:07:07;101283.0;;;30.01;24.64
48644;BME280;34928;37.302;-121.984;2022-07-10T15:17:12;101283.0;;;30.05;24.43
48644;BME280;34928;37.302;-121.984;2022-07-10T15:27:17;101282.0;;;30.05;24.31
48644;BME280;34928;37.302;-121.984;2022-07-10T15:37:22;101289.0;;;30.05;24.30
48644;BME280;34928;37.302;-121.984;2022-07-10T15:47:27;101289.0;;;30.01;24.35
48644;BME280;34928;37.302;-121.984;2022-07-10T15:57:32;101291.0;;;29.94;24.38
48644;BME280;34928;37.302;-121.984;2022-07-10T16:07:37;101290.0;;;30.28;24.38
48644;BME280;34928;37.302;-121.984;2022-07-10T16:17:42;101277.0;;;30.01;24.36
48644;BME280;34928;37.302;-121.984;2022-07-10T16:27:47;101265.0;;;30.06;24.27
48644;BME280;34928;37.302;-121.984;2022-07-10T16:37:52;101255.0;;;30.08;24.24
48644;BME280;34928;37.302;-121.984;2022-07-10T16:47:57;101245.0;;;30.07;24.21
48644;BME280;34928;37.302;-121.984;2022-07-10T16:58:03;101234.0;;;30.08;24.28
48644;BME280;34928;37.302;-121.984;2022-07-10T17:08:07;101222.0;;;30.16;24.22
48644;BME280;34928;37.302;-121.984;2022-07-10T17:18:12;101208.0;;;30.23;24.20
48644;BME280;34928;37.302;-121.984;2022-07-10T17:28:17;101206.0;;;30.82;24.20
48644;BME280;34928;37.302;-121.984;2022-07-10T17:38:23;101200.0;;;30.40;24.19
48644;BME280;34928;37.302;-121.984;2022-07-10T17:48:27;101192.0;;;30.45;24.22
48644;BME280;34928;37.302;-121.984;2022-07-10T17:58:32;101187.0;;;30.54;24.26
48644;BME280;34928;37.302;-121.984;2022-07-10T18:08:37;101172.0;;;30.62;24.51
48644;BME280;34928;37.302;-121.984;2022-07-10T18:18:44;101166.0;;;30.70;24.23
48644;BME280;34928;37.302;-121.984;2022-07-10T18:28:47;101154.0;;;30.80;24.29
48644;BME280;34928;37.302;-121.984;2022-07-10T18:38:52;101143.0;;;30.85;24.35
48644;BME280;34928;37.302;-121.984;2022-07-10T18:48:58;101127.0;;;30.77;24.28
48644;BME280;34928;37.302;-121.984;2022-07-10T18:59:03;101122.0;;;30.84;24.36
48644;BME280;34928;37.302;-121.984;2022-07-10T19:09:07;101115.0;;;30.66;24.42
48644;BME280;34928;37.302;-121.984;2022-07-10T19:19:12;101106.0;;;31.05;24.51
48644;BME280;34928;37.302;-121.984;2022-07-10T19:29:17;101097.0;;;31.28;24.76
48644;BME280;34928;37.302;-121.984;2022-07-10T19:39:23;101080.0;;;30.96;24.59
48644;BME280;34928;37.302;-121.984;2022-07-10T19:49:27;101064.0;;;31.46;24.87
48644;BME280;34928;37.302;-121.984;2022-07-10T19:59:32;101050.0;;;31.17;24.80
48644;BME280;34928;37.302;-121.984;2022-07-10T20:09:37;101038.0;;;31.53;24.86
48644;BME280;34928;37.302;-121.984;2022-07-10T20:19:42;101025.0;;;31.37;24.91
48644;BME280;34928;37.302;-121.984;2022-07-10T20:29:47;101010.0;;;31.53;24.87
48644;BME280;34928;37.302;-121.984;2022-07-10T20:39:52;100998.0;;;31.58;24.99
48644;BME280;34928;37.302;-121.984;2022-07-10T20:49:57;100989.0;;;31.76;24.92
48644;BME280;34928;37.302;-121.984;2022-07-10T21:00:03;100990.0;;;31.85;24.94
48644;BME280;34928;37.302;-121.984;2022-07-10T21:10:09;100983.0;;;31.94;24.94
48644;BME280;34928;37.302;-121.984;2022-07-10T21:20:12;100976.0;;;32.05;24.85
48644;BME280;34928;37.302;-121.984;2022-07-10T21:30:17;100964.0;;;32.18;24.87
48644;BME280;34928;37.302;-121.984;2022-07-10T21:40:22;100952.0;;;32.08;24.91
48644;BME280;34928;37.302;-121.984;2022-07-10T21:50:27;100937.0;;;32.26;24.76
48644;BME280;34928;37.302;-121.984;2022-07-10T22:00:32;100922.0;;;32.18;24.79
48644;BME280;34928;37.302;-121.984;2022-07-10T22:10:37;100908.0;;;32.29;24.75
48644;BME280;34928;37.302;-121.984;2022-07-10T22:20:42;100895.0;;;32.45;24.75
48644;BME280;34928;37.302;-121.984;2022-07-10T22:30:47;100879.0;;;32.85;24.68
48644;BME280;34928;37.302;-121.984;2022-07-10T22:40:52;100859.0;;;32.74;24.66
48644;BME280;34928;37.302;-121.984;2022-07-10T22:50:57;100844.0;;;32.88;24.59
48644;BME280;34928;37.302;-121.984;2022-07-10T23:01:02;100841.0;;;33.06;24.37
48644;BME280;34928;37.302;-121.984;2022-07-10T23:11:08;100829.0;;;33.18;24.29
48644;BME280;34928;37.302;-121.984;2022-07-10T23:21:12;100814.0;;;33.25;24.32
48644;BME280;34928;37.302;-121.984;2022-07-10T23:31:17;100806.0;;;33.38;24.24
48644;BME280;34928;37.302;-121.984;2022-07-10T23:41:22;100796.0;;;33.50;24.51
48644;BME280;34928;37.302;-121.984;2022-07-10T23:51:27;100798.0;;;33.36;24.55
